sensor_id;sensor_type;location;lat;lon;timestamp;P1;durP1;ratioP1;P2;durP2;ratioP2
66089;SDS011;53113;45.602;11.904;2022-07-21T00:01:45;9.50;;;4.70;;
66089;SDS011;53113;45.602;11.904;2022-07-21T00:04:11;8.60;;;4.60;;
66089;SDS011;53113;45.602;11.904;2022-07-21T00:06:37;9.20;;;4.50;;
66089;SDS011;53113;45.602;11.904;2022-07-21T00:09:03;8.90;;;4.30;;
66089;SDS011;53113;45.602;11.904;2022-07-21T00:11:29;8.50;;;3.90;;
66089;SDS011;53113;45.602;11.904;2022-07-21T00:13:54;7.80;;;4.60;;
66089;SDS011;53113;45.602;11.904;2022-07-21T00:16:20;9.50;;;4.10;;
66089;SDS011;53113;45.602;11.904;2022-07-21T00:18:46;9.70;;;4.10;;
66089;SDS011;53113;45.602;11.904;2022-07-21T00:21:12;9.80;;;4.80;;
66089;SDS011;53113;45.602;11.904;2022-07-21T00:23:37;11.10;;;4.90;;
66089;SDS011;53113;45.602;11.904;2022-07-21T00:26:04;10.30;;;5.00;;
66089;SDS011;53113;45.602;11.904;2022-07-21T00:28:30;7.80;;;4.50;;
66089;SDS011;53113;45.602;11.904;2022-07-21T00:30:55;8.50;;;4.40;;
66089;SDS011;53113;45.602;11.904;2022-07-21T00:33:21;8.40;;;4.20;;
66089;SDS011;53113;45.602;11.904;2022-07-21T00:35:46;9.10;;;4.20;;
66089;SDS011;53113;45.602;11.904;2022-07-21T00:38:12;7.80;;;4.10;;
66089;SDS011;53113;45.602;11.904;2022-07-21T00:40:38;9.30;;;4.90;;
66089;SDS011;53113;45.602;11.904;2022-07-21T00:43:04;10.80;;;4.50;;
66089;SDS011;53113;45.602;11.904;2022-07-21T00:45:30;9.00;;;4.80;;
66089;SDS011;53113;45.602;11.904;2022-07-21T00:47:56;12.40;;;5.00;;
66089;SDS011;53113;45.602;11.904;2022-07-21T00:50:22;8.30;;;4.70;;
66089;SDS011;53113;45.602;11.904;2022-07-21T00:52:48;10.70;;;5.50;;
66089;SDS011;53113;45.602;11.904;2022-07-21T00:55:16;7.60;;;4.60;;
66089;SDS011;53113;45.602;11.904;2022-07-21T00:57:44;10.30;;;5.00;;
66089;SDS011;53113;45.602;11.904;2022-07-21T01:00:15;9.00;;;5.00;;
66089;SDS011;53113;45.602;11.904;2022-07-21T01:02:44;10.10;;;4.90;;
66089;SDS011;53113;45.602;11.904;2022-07-21T01:05:10;10.30;;;4.80;;
66089;SDS011;53113;45.602;11.904;2022-07-21T01:07:44;9.30;;;5.10;;
66089;SDS011;53113;45.602;11.904;2022-07-21T01:10:11;7.70;;;4.80;;
66089;SDS011;53113;45.602;11.904;2022-07-21T01:12:38;11.70;;;4.60;;
66089;SDS011;53113;45.602;11.904;2022-07-21T01:15:05;9.70;;;4.70;;
66089;SDS011;53113;45.602;11.904;2022-07-21T01:17:31;11.20;;;5.10;;
66089;SDS011;53113;45.602;11.904;2022-07-21T01:19:59;9.90;;;4.90;;
66089;SDS011;53113;45.602;11.904;2022-07-21T01:22:37;9.20;;;5.50;;
66089;SDS011;53113;45.602;11.904;2022-07-21T01:25:04;8.50;;;4.60;;
66089;SDS011;53113;45.602;11.904;2022-07-21T01:27:30;9.90;;;4.80;;
66089;SDS011;53113;45.602;11.904;2022-07-21T01:29:57;9.10;;;4.40;;
66089;SDS011;53113;45.602;11.904;2022-07-21T01:32:23;8.80;;;4.90;;
66089;SDS011;53113;45.602;11.904;2022-07-21T01:34:49;9.10;;;5.70;;
66089;SDS011;53113;45.602;11.904;2022-07-21T01:37:15;8.70;;;5.00;;
66089;SDS011;53113;45.602;11.904;2022-07-21T01:39:49;9.70;;;5.00;;
66089;SDS011;53113;45.602;11.904;2022-07-21T01:42:34;8.30;;;4.90;;
66089;SDS011;53113;45.602;11.904;2022-07-21T01:45:01;11.50;;;5.50;;
66089;SDS011;53113;45.602;11.904;2022-07-21T01:47:27;8.30;;;5.60;;
66089;SDS011;53113;45.602;11.904;2022-07-21T01:49:53;9.90;;;5.50;;
66089;SDS011;53113;45.602;11.904;2022-07-21T01:52:18;10.00;;;5.40;;
66089;SDS011;53113;45.602;11.904;2022-07-21T01:54:44;9.20;;;5.20;;
66089;SDS011;53113;45.602;11.904;2022-07-21T01:57:09;12.10;;;5.60;;
66089;SDS011;53113;45.602;11.904;2022-07-21T01:59:35;9.60;;;5.20;;
66089;SDS011;53113;45.602;11.904;2022-07-21T02:02:00;9.90;;;5.20;;
66089;SDS011;53113;45.602;11.904;2022-07-21T02:04:26;8.80;;;5.00;;
66089;SDS011;53113;45.602;11.904;2022-07-21T02:06:52;13.40;;;5.50;;
66089;SDS011;53113;45.602;11.904;2022-07-21T02:09:18;9.00;;;5.00;;
66089;SDS011;53113;45.602;11.904;2022-07-21T02:11:43;9.00;;;5.10;;
66089;SDS011;53113;45.602;11.904;2022-07-21T02:14:09;8.80;;;4.90;;
66089;SDS011;53113;45.602;11.904;2022-07-21T02:16:34;9.00;;;5.30;;
66089;SDS011;53113;45.602;11.904;2022-07-21T02:19:00;9.70;;;5.30;;
66089;SDS011;53113;45.602;11.904;2022-07-21T02:21:26;9.80;;;4.80;;
66089;SDS011;53113;45.602;11.904;2022-07-21T02:23:52;11.70;;;4.90;;
66089;SDS011;53113;45.602;11.904;2022-07-21T02:26:18;8.70;;;5.20;;
66089;SDS011;53113;45.602;11.904;2022-07-21T02:28:44;10.50;;;5.80;;
66089;SDS011;53113;45.602;11.904;2022-07-21T02:31:10;9.00;;;5.60;;
66089;SDS011;53113;45.602;11.904;2022-07-21T02:33:35;10.60;;;6.10;;
66089;SDS011;53113;45.602;11.904;2022-07-21T02:36:01;11.40;;;5.80;;
66089;SDS011;53113;45.602;11.904;2022-07-21T02:38:27;11.40;;;5.60;;
66089;SDS011;53113;45.602;11.904;2022-07-21T02:40:52;10.00;;;5.40;;
66089;SDS011;53113;45.602;11.904;2022-07-21T02:43:18;10.70;;;5.90;;
66089;SDS011;53113;45.602;11.904;2022-07-21T02:45:43;10.30;;;5.60;;
66089;SDS011;53113;45.602;11.904;2022-07-21T02:48:10;9.10;;;5.90;;
66089;SDS011;53113;45.602;11.904;2022-07-21T02:50:39;8.60;;;6.10;;
66089;SDS011;53113;45.602;11.904;2022-07-21T02:53:08;11.60;;;5.70;;
66089;SDS011;53113;45.602;11.904;2022-07-21T02:55:35;11.20;;;5.80;;
66089;SDS011;53113;45.602;11.904;2022-07-21T03:00:47;11.00;;;6.20;;
66089;SDS011;53113;45.602;11.904;2022-07-21T03:03:13;12.80;;;6.10;;
66089;SDS011;53113;45.602;11.904;2022-07-21T03:05:39;10.00;;;6.30;;
66089;SDS011;53113;45.602;11.904;2022-07-21T03:08:05;11.20;;;6.90;;
66089;SDS011;53113;45.602;11.904;2022-07-21T03:10:33;11.90;;;7.90;;
66089;SDS011;53113;45.602;11.904;2022-07-21T03:13:00;12.10;;;7.40;;
66089;SDS011;53113;45.602;11.904;2022-07-21T03:15:25;10.40;;;6.70;;
66089;SDS011;53113;45.602;11.904;2022-07-21T03:17:52;11.50;;;7.80;;
66089;SDS011;53113;45.602;11.904;2022-07-21T03:20:22;11.60;;;7.00;;
66089;SDS011;53113;45.602;11.904;2022-07-21T03:22:52;11.40;;;6.80;;
66089;SDS011;53113;45.602;11.904;2022-07-21T03:25:18;10.80;;;6.90;;
66089;SDS011;53113;45.602;11.904;2022-07-21T03:27:44;11.80;;;7.10;;
66089;SDS011;53113;45.602;11.904;2022-07-21T03:30:11;12.10;;;6.50;;
66089;SDS011;53113;45.602;11.904;2022-07-21T03:32:37;11.80;;;7.20;;
66089;SDS011;53113;45.602;11.904;2022-07-21T03:35:03;11.30;;;7.10;;
66089;SDS011;53113;45.602;11.904;2022-07-21T03:37:30;11.00;;;6.90;;
66089;SDS011;53113;45.602;11.904;2022-07-21T03:39:56;12.00;;;7.70;;
66089;SDS011;53113;45.602;11.904;2022-07-21T03:42:22;13.50;;;8.20;;
66089;SDS011;53113;45.602;11.904;2022-07-21T03:44:48;14.80;;;9.50;;
66089;SDS011;53113;45.602;11.904;2022-07-21T03:47:13;14.10;;;8.20;;
66089;SDS011;53113;45.602;11.904;2022-07-21T03:49:39;13.70;;;9.00;;
66089;SDS011;53113;45.602;11.904;2022-07-21T03:52:05;16.10;;;9.70;;
66089;SDS011;53113;45.602;11.904;2022-07-21T03:54:30;18.10;;;9.40;;
66089;SDS011;53113;45.602;11.904;2022-07-21T03:56:56;14.10;;;10.00;;
66089;SDS011;53113;45.602;11.904;2022-07-21T03:59:22;13.10;;;9.20;;
66089;SDS011;53113;45.602;11.904;2022-07-21T04:01:47;13.40;;;10.20;;
66089;SDS011;53113;45.602;11.904;2022-07-21T04:04:13;12.80;;;8.60;;
66089;SDS011;53113;45.602;11.904;2022-07-21T04:06:39;12.00;;;7.90;;
66089;SDS011;53113;45.602;11.904;2022-07-21T04:09:04;12.50;;;7.80;;
66089;SDS011;53113;45.602;11.904;2022-07-21T04:11:30;12.50;;;8.20;;
66089;SDS011;53113;45.602;11.904;2022-07-21T04:13:57;11.40;;;8.30;;
66089;SDS011;53113;45.602;11.904;2022-07-21T04:16:23;13.70;;;8.00;;
66089;SDS011;53113;45.602;11.904;2022-07-21T04:18:49;12.00;;;9.10;;
66089;SDS011;53113;45.602;11.904;2022-07-21T04:21:15;12.00;;;9.30;;
66089;SDS011;53113;45.602;11.904;2022-07-21T04:23:40;12.30;;;8.60;;
66089;SDS011;53113;45.602;11.904;2022-07-21T04:26:06;13.00;;;8.90;;
66089;SDS011;53113;45.602;11.904;2022-07-21T04:28:32;13.30;;;9.30;;
66089;SDS011;53113;45.602;11.904;2022-07-21T04:30:57;15.80;;;9.80;;
66089;SDS011;53113;45.602;11.904;2022-07-21T04:33:23;16.50;;;9.10;;
66089;SDS011;53113;45.602;11.904;2022-07-21T04:35:49;14.80;;;10.70;;
66089;SDS011;53113;45.602;11.904;2022-07-21T04:38:15;14.30;;;9.40;;
66089;SDS011;53113;45.602;11.904;2022-07-21T04:40:40;14.40;;;9.20;;
66089;SDS011;53113;45.602;11.904;2022-07-21T04:43:06;14.30;;;9.30;;
66089;SDS011;53113;45.602;11.904;2022-07-21T04:45:32;17.10;;;10.10;;
66089;SDS011;53113;45.602;11.904;2022-07-21T04:47:58;14.10;;;9.80;;
66089;SDS011;53113;45.602;11.904;2022-07-21T04:50:25;14.30;;;11.00;;
66089;SDS011;53113;45.602;11.904;2022-07-21T04:52:52;14.60;;;10.10;;
66089;SDS011;53113;45.602;11.904;2022-07-21T04:55:18;14.40;;;10.20;;
66089;SDS011;53113;45.602;11.904;2022-07-21T04:57:45;17.90;;;9.90;;
66089;SDS011;53113;45.602;11.904;2022-07-21T05:00:13;16.10;;;10.40;;
66089;SDS011;53113;45.602;11.904;2022-07-21T05:02:42;15.90;;;9.50;;
66089;SDS011;53113;45.602;11.904;2022-07-21T05:05:09;15.70;;;9.90;;
66089;SDS011;53113;45.602;11.904;2022-07-21T05:07:35;15.90;;;10.50;;
66089;SDS011;53113;45.602;11.904;2022-07-21T05:10:07;14.70;;;10.20;;
66089;SDS011;53113;45.602;11.904;2022-07-21T05:12:35;13.80;;;10.20;;
66089;SDS011;53113;45.602;11.904;2022-07-21T05:15:02;13.00;;;10.10;;
66089;SDS011;53113;45.602;11.904;2022-07-21T05:17:30;15.50;;;10.10;;
66089;SDS011;53113;45.602;11.904;2022-07-21T05:19:56;14.30;;;10.00;;
66089;SDS011;53113;45.602;11.904;2022-07-21T05:22:22;14.40;;;9.90;;
66089;SDS011;53113;45.602;11.904;2022-07-21T05:24:47;14.10;;;9.40;;
66089;SDS011;53113;45.602;11.904;2022-07-21T05:27:13;13.70;;;10.20;;
66089;SDS011;53113;45.602;11.904;2022-07-21T05:29:39;12.40;;;9.40;;
66089;SDS011;53113;45.602;11.904;2022-07-21T05:32:05;13.90;;;10.00;;
66089;SDS011;53113;45.602;11.904;2022-07-21T05:34:31;12.90;;;9.40;;
66089;SDS011;53113;45.602;11.904;2022-07-21T05:36:56;14.00;;;9.40;;
66089;SDS011;53113;45.602;11.904;2022-07-21T05:39:22;13.70;;;9.70;;
66089;SDS011;53113;45.602;11.904;2022-07-21T05:41:47;13.90;;;9.30;;
66089;SDS011;53113;45.602;11.904;2022-07-21T05:44:13;12.70;;;9.30;;
66089;SDS011;53113;45.602;11.904;2022-07-21T05:46:39;13.50;;;9.90;;
66089;SDS011;53113;45.602;11.904;2022-07-21T05:49:05;13.00;;;9.00;;
66089;SDS011;53113;45.602;11.904;2022-07-21T05:51:30;13.70;;;9.00;;
66089;SDS011;53113;45.602;11.904;2022-07-21T05:53:56;11.60;;;9.40;;
66089;SDS011;53113;45.602;11.904;2022-07-21T05:56:22;13.30;;;9.10;;
66089;SDS011;53113;45.602;11.904;2022-07-21T05:58:47;12.70;;;8.60;;
66089;SDS011;53113;45.602;11.904;2022-07-21T06:01:13;12.30;;;9.20;;
66089;SDS011;53113;45.602;11.904;2022-07-21T06:03:45;14.20;;;8.30;;
66089;SDS011;53113;45.602;11.904;2022-07-21T06:06:13;12.60;;;8.60;;
66089;SDS011;53113;45.602;11.904;2022-07-21T06:11:07;12.00;;;8.70;;
66089;SDS011;53113;45.602;11.904;2022-07-21T06:13:34;13.40;;;9.30;;
66089;SDS011;53113;45.602;11.904;2022-07-21T06:16:00;12.10;;;8.60;;
66089;SDS011;53113;45.602;11.904;2022-07-21T06:18:26;13.30;;;8.10;;
66089;SDS011;53113;45.602;11.904;2022-07-21T06:20:52;13.20;;;8.60;;
66089;SDS011;53113;45.602;11.904;2022-07-21T06:23:17;14.70;;;8.80;;
66089;SDS011;53113;45.602;11.904;2022-07-21T06:25:43;14.50;;;7.70;;
66089;SDS011;53113;45.602;11.904;2022-07-21T06:28:09;13.50;;;7.50;;
66089;SDS011;53113;45.602;11.904;2022-07-21T06:30:35;12.40;;;7.60;;
66089;SDS011;53113;45.602;11.904;2022-07-21T06:33:01;12.50;;;7.00;;
66089;SDS011;53113;45.602;11.904;2022-07-21T06:35:27;13.80;;;7.80;;
66089;SDS011;53113;45.602;11.904;2022-07-21T06:37:53;11.70;;;7.20;;
66089;SDS011;53113;45.602;11.904;2022-07-21T06:40:19;18.30;;;7.60;;
66089;SDS011;53113;45.602;11.904;2022-07-21T06:42:44;14.10;;;7.60;;
66089;SDS011;53113;45.602;11.904;2022-07-21T06:45:10;10.50;;;7.00;;
66089;SDS011;53113;45.602;11.904;2022-07-21T06:47:36;14.90;;;6.80;;
66089;SDS011;53113;45.602;11.904;2022-07-21T06:50:02;12.70;;;7.40;;
66089;SDS011;53113;45.602;11.904;2022-07-21T06:52:29;11.10;;;6.40;;
66089;SDS011;53113;45.602;11.904;2022-07-21T06:54:56;14.30;;;7.50;;
66089;SDS011;53113;45.602;11.904;2022-07-21T06:57:22;9.30;;;6.30;;
66089;SDS011;53113;45.602;11.904;2022-07-21T06:59:48;13.00;;;6.30;;
66089;SDS011;53113;45.602;11.904;2022-07-21T07:02:14;9.80;;;5.50;;
66089;SDS011;53113;45.602;11.904;2022-07-21T07:04:40;9.40;;;6.20;;
66089;SDS011;53113;45.602;11.904;2022-07-21T07:07:06;11.60;;;6.10;;
66089;SDS011;53113;45.602;11.904;2022-07-21T07:09:32;9.10;;;6.10;;
66089;SDS011;53113;45.602;11.904;2022-07-21T07:11:58;12.70;;;6.20;;
66089;SDS011;53113;45.602;11.904;2022-07-21T07:14:32;11.80;;;5.90;;
66089;SDS011;53113;45.602;11.904;2022-07-21T07:16:59;10.40;;;6.10;;
66089;SDS011;53113;45.602;11.904;2022-07-21T07:19:26;11.10;;;6.30;;
66089;SDS011;53113;45.602;11.904;2022-07-21T07:21:53;11.50;;;5.70;;
66089;SDS011;53113;45.602;11.904;2022-07-21T07:24:19;10.10;;;6.10;;
66089;SDS011;53113;45.602;11.904;2022-07-21T07:26:45;10.60;;;5.90;;
66089;SDS011;53113;45.602;11.904;2022-07-21T07:29:12;12.00;;;5.80;;
66089;SDS011;53113;45.602;11.904;2022-07-21T07:31:39;10.20;;;5.90;;
66089;SDS011;53113;45.602;11.904;2022-07-21T07:34:05;9.70;;;5.50;;
66089;SDS011;53113;45.602;11.904;2022-07-21T07:36:31;13.30;;;5.90;;
66089;SDS011;53113;45.602;11.904;2022-07-21T07:38:57;11.40;;;5.60;;
66089;SDS011;53113;45.602;11.904;2022-07-21T07:41:25;10.60;;;5.70;;
66089;SDS011;53113;45.602;11.904;2022-07-21T07:43:52;11.70;;;5.70;;
66089;SDS011;53113;45.602;11.904;2022-07-21T07:46:18;11.20;;;5.50;;
66089;SDS011;53113;45.602;11.904;2022-07-21T07:48:45;10.60;;;5.30;;
66089;SDS011;53113;45.602;11.904;2022-07-21T07:51:13;12.30;;;5.70;;
66089;SDS011;53113;45.602;11.904;2022-07-21T07:53:39;8.30;;;5.30;;
66089;SDS011;53113;45.602;11.904;2022-07-21T07:56:06;11.10;;;5.60;;
66089;SDS011;53113;45.602;11.904;2022-07-21T07:58:33;10.40;;;5.60;;
66089;SDS011;53113;45.602;11.904;2022-07-21T08:00:59;13.20;;;5.90;;
66089;SDS011;53113;45.602;11.904;2022-07-21T08:03:26;13.80;;;5.70;;
66089;SDS011;53113;45.602;11.904;2022-07-21T08:05:53;12.50;;;5.30;;
66089;SDS011;53113;45.602;11.904;2022-07-21T08:08:24;11.30;;;4.80;;
66089;SDS011;53113;45.602;11.904;2022-07-21T08:10:51;8.30;;;4.70;;
66089;SDS011;53113;45.602;11.904;2022-07-21T08:13:17;9.50;;;4.40;;
66089;SDS011;53113;45.602;11.904;2022-07-21T08:15:43;9.90;;;4.70;;
66089;SDS011;53113;45.602;11.904;2022-07-21T08:18:10;9.80;;;5.00;;
66089;SDS011;53113;45.602;11.904;2022-07-21T08:20:37;10.00;;;4.40;;
66089;SDS011;53113;45.602;11.904;2022-07-21T08:23:04;8.50;;;4.70;;
66089;SDS011;53113;45.602;11.904;2022-07-21T08:25:37;9.20;;;4.70;;
66089;SDS011;53113;45.602;11.904;2022-07-21T08:28:03;9.00;;;4.50;;
66089;SDS011;53113;45.602;11.904;2022-07-21T08:30:29;8.90;;;4.80;;
66089;SDS011;53113;45.602;11.904;2022-07-21T08:32:56;9.80;;;4.90;;
66089;SDS011;53113;45.602;11.904;2022-07-21T08:35:22;10.80;;;4.60;;
66089;SDS011;53113;45.602;11.904;2022-07-21T08:37:57;7.80;;;4.70;;
66089;SDS011;53113;45.602;11.904;2022-07-21T08:40:26;9.80;;;4.40;;
66089;SDS011;53113;45.602;11.904;2022-07-21T08:42:53;8.00;;;4.20;;
66089;SDS011;53113;45.602;11.904;2022-07-21T08:45:21;9.60;;;4.10;;
66089;SDS011;53113;45.602;11.904;2022-07-21T08:47:54;9.10;;;3.90;;
66089;SDS011;53113;45.602;11.904;2022-07-21T08:50:24;8.60;;;3.90;;
66089;SDS011;53113;45.602;11.904;2022-07-21T08:52:51;8.40;;;3.80;;
66089;SDS011;53113;45.602;11.904;2022-07-21T08:55:17;7.20;;;3.50;;
66089;SDS011;53113;45.602;11.904;2022-07-21T08:57:43;7.60;;;3.90;;
66089;SDS011;53113;45.602;11.904;2022-07-21T09:00:09;9.00;;;4.10;;
66089;SDS011;53113;45.602;11.904;2022-07-21T09:02:37;7.00;;;4.00;;
66089;SDS011;53113;45.602;11.904;2022-07-21T09:05:03;6.80;;;4.00;;
66089;SDS011;53113;45.602;11.904;2022-07-21T09:07:52;7.80;;;3.80;;
66089;SDS011;53113;45.602;11.904;2022-07-21T09:10:24;7.30;;;3.90;;
66089;SDS011;53113;45.602;11.904;2022-07-21T09:12:52;9.40;;;4.20;;
66089;SDS011;53113;45.602;11.904;2022-07-21T09:15:27;8.20;;;3.50;;
66089;SDS011;53113;45.602;11.904;2022-07-21T09:20:46;7.70;;;2.60;;
66089;SDS011;53113;45.602;11.904;2022-07-21T09:23:14;5.50;;;2.60;;
66089;SDS011;53113;45.602;11.904;2022-07-21T09:31:25;6.70;;;3.20;;
66089;SDS011;53113;45.602;11.904;2022-07-21T09:33:40;9.70;;;3.90;;
66089;SDS011;53113;45.602;11.904;2022-07-21T09:38:44;7.70;;;3.50;;
66089;SDS011;53113;45.602;11.904;2022-07-21T09:41:16;10.50;;;3.80;;
66089;SDS011;53113;45.602;11.904;2022-07-21T09:43:47;7.80;;;3.50;;
66089;SDS011;53113;45.602;11.904;2022-07-21T09:46:17;8.30;;;3.80;;
66089;SDS011;53113;45.602;11.904;2022-07-21T09:48:46;8.20;;;4.10;;
66089;SDS011;53113;45.602;11.904;2022-07-21T09:51:20;9.20;;;4.50;;
66089;SDS011;53113;45.602;11.904;2022-07-21T09:54:04;8.60;;;3.90;;
66089;SDS011;53113;45.602;11.904;2022-07-21T09:58:58;10.10;;;3.70;;
66089;SDS011;53113;45.602;11.904;2022-07-21T10:01:26;8.10;;;3.60;;
66089;SDS011;53113;45.602;11.904;2022-07-21T10:03:53;10.00;;;4.00;;
66089;SDS011;53113;45.602;11.904;2022-07-21T10:06:22;7.10;;;3.40;;
66089;SDS011;53113;45.602;11.904;2022-07-21T10:08:49;8.30;;;4.00;;
66089;SDS011;53113;45.602;11.904;2022-07-21T10:11:16;6.00;;;3.70;;
66089;SDS011;53113;45.602;11.904;2022-07-21T10:13:42;9.00;;;3.80;;
66089;SDS011;53113;45.602;11.904;2022-07-21T10:16:09;6.20;;;3.40;;
66089;SDS011;53113;45.602;11.904;2022-07-21T10:18:42;10.40;;;3.20;;
66089;SDS011;53113;45.602;11.904;2022-07-21T10:23:54;8.50;;;3.20;;
66089;SDS011;53113;45.602;11.904;2022-07-21T10:26:21;6.80;;;3.80;;
66089;SDS011;53113;45.602;11.904;2022-07-21T10:28:47;7.70;;;3.20;;
66089;SDS011;53113;45.602;11.904;2022-07-21T10:31:16;7.90;;;3.60;;
66089;SDS011;53113;45.602;11.904;2022-07-21T10:41:40;8.30;;;3.90;;
66089;SDS011;53113;45.602;11.904;2022-07-21T10:47:14;8.90;;;3.70;;
66089;SDS011;53113;45.602;11.904;2022-07-21T10:49:45;6.80;;;4.20;;
66089;SDS011;53113;45.602;11.904;2022-07-21T10:57:36;7.90;;;4.40;;
66089;SDS011;53113;45.602;11.904;2022-07-21T11:08:37;7.70;;;4.40;;
66089;SDS011;53113;45.602;11.904;2022-07-21T11:21:51;6.60;;;4.20;;
66089;SDS011;53113;45.602;11.904;2022-07-21T11:24:17;7.30;;;3.70;;
66089;SDS011;53113;45.602;11.904;2022-07-21T11:27:21;9.50;;;4.10;;
66089;SDS011;53113;45.602;11.904;2022-07-21T11:29:42;8.50;;;4.30;;
66089;SDS011;53113;45.602;11.904;2022-07-21T11:32:10;8.10;;;4.40;;
66089;SDS011;53113;45.602;11.904;2022-07-21T11:34:47;8.10;;;4.70;;
66089;SDS011;53113;45.602;11.904;2022-07-21T11:37:28;8.30;;;4.30;;
66089;SDS011;53113;45.602;11.904;2022-07-21T11:39:57;9.90;;;4.20;;
66089;SDS011;53113;45.602;11.904;2022-07-21T11:42:24;7.60;;;4.70;;
66089;SDS011;53113;45.602;11.904;2022-07-21T11:44:51;7.80;;;4.60;;
66089;SDS011;53113;45.602;11.904;2022-07-21T11:47:17;9.10;;;4.40;;
66089;SDS011;53113;45.602;11.904;2022-07-21T11:49:45;7.00;;;4.20;;
66089;SDS011;53113;45.602;11.904;2022-07-21T11:52:12;6.50;;;4.30;;
66089;SDS011;53113;45.602;11.904;2022-07-21T11:54:49;7.40;;;4.20;;
66089;SDS011;53113;45.602;11.904;2022-07-21T11:57:17;8.30;;;4.40;;
66089;SDS011;53113;45.602;11.904;2022-07-21T11:59:45;7.70;;;4.00;;
66089;SDS011;53113;45.602;11.904;2022-07-21T12:02:12;7.50;;;3.90;;
66089;SDS011;53113;45.602;11.904;2022-07-21T12:04:40;8.10;;;4.50;;
66089;SDS011;53113;45.602;11.904;2022-07-21T12:07:19;8.50;;;4.50;;
66089;SDS011;53113;45.602;11.904;2022-07-21T12:09:47;9.40;;;4.20;;
66089;SDS011;53113;45.602;11.904;2022-07-21T12:12:26;8.20;;;3.80;;
66089;SDS011;53113;45.602;11.904;2022-07-21T12:15:15;8.60;;;3.90;;
66089;SDS011;53113;45.602;11.904;2022-07-21T12:20:23;6.80;;;3.80;;
66089;SDS011;53113;45.602;11.904;2022-07-21T12:22:51;6.90;;;4.00;;
66089;SDS011;53113;45.602;11.904;2022-07-21T12:25:18;6.90;;;3.50;;
66089;SDS011;53113;45.602;11.904;2022-07-21T12:27:55;6.70;;;3.60;;
66089;SDS011;53113;45.602;11.904;2022-07-21T12:30:29;7.10;;;3.50;;
66089;SDS011;53113;45.602;11.904;2022-07-21T12:33:08;8.30;;;4.20;;
66089;SDS011;53113;45.602;11.904;2022-07-21T12:35:37;7.40;;;4.20;;
66089;SDS011;53113;45.602;11.904;2022-07-21T12:38:14;7.90;;;4.00;;
66089;SDS011;53113;45.602;11.904;2022-07-21T12:40:42;7.50;;;4.30;;
66089;SDS011;53113;45.602;11.904;2022-07-21T12:43:13;6.60;;;3.80;;
66089;SDS011;53113;45.602;11.904;2022-07-21T12:45:48;7.60;;;3.70;;
66089;SDS011;53113;45.602;11.904;2022-07-21T12:48:18;7.10;;;3.60;;
66089;SDS011;53113;45.602;11.904;2022-07-21T12:53:40;7.80;;;3.90;;
66089;SDS011;53113;45.602;11.904;2022-07-21T12:56:08;8.70;;;4.30;;
66089;SDS011;53113;45.602;11.904;2022-07-21T12:58:35;8.10;;;4.30;;
66089;SDS011;53113;45.602;11.904;2022-07-21T13:01:02;9.50;;;4.20;;
66089;SDS011;53113;45.602;11.904;2022-07-21T13:03:29;8.90;;;4.20;;
66089;SDS011;53113;45.602;11.904;2022-07-21T13:05:56;7.50;;;4.10;;
66089;SDS011;53113;45.602;11.904;2022-07-21T13:08:23;10.00;;;4.20;;
66089;SDS011;53113;45.602;11.904;2022-07-21T13:10:49;8.70;;;4.30;;
66089;SDS011;53113;45.602;11.904;2022-07-21T13:13:14;6.50;;;3.80;;
66089;SDS011;53113;45.602;11.904;2022-07-21T13:15:40;8.00;;;4.50;;
66089;SDS011;53113;45.602;11.904;2022-07-21T13:18:07;7.60;;;4.20;;
66089;SDS011;53113;45.602;11.904;2022-07-21T13:20:33;8.90;;;4.40;;
66089;SDS011;53113;45.602;11.904;2022-07-21T13:22:58;8.60;;;4.50;;
66089;SDS011;53113;45.602;11.904;2022-07-21T13:25:24;6.50;;;4.30;;
66089;SDS011;53113;45.602;11.904;2022-07-21T13:27:50;7.10;;;4.30;;
66089;SDS011;53113;45.602;11.904;2022-07-21T13:30:16;8.60;;;4.60;;
66089;SDS011;53113;45.602;11.904;2022-07-21T13:32:43;7.90;;;4.30;;
66089;SDS011;53113;45.602;11.904;2022-07-21T13:35:09;7.20;;;4.10;;
66089;SDS011;53113;45.602;11.904;2022-07-21T13:37:35;6.60;;;4.10;;
66089;SDS011;53113;45.602;11.904;2022-07-21T13:40:00;7.90;;;4.30;;
66089;SDS011;53113;45.602;11.904;2022-07-21T13:42:26;6.60;;;4.20;;
66089;SDS011;53113;45.602;11.904;2022-07-21T13:44:51;7.50;;;4.60;;
66089;SDS011;53113;45.602;11.904;2022-07-21T13:47:17;8.00;;;4.30;;
66089;SDS011;53113;45.602;11.904;2022-07-21T13:49:43;8.60;;;4.60;;
66089;SDS011;53113;45.602;11.904;2022-07-21T13:52:08;8.20;;;4.30;;
66089;SDS011;53113;45.602;11.904;2022-07-21T13:54:34;8.30;;;4.60;;
66089;SDS011;53113;45.602;11.904;2022-07-21T13:57:00;8.70;;;4.80;;
66089;SDS011;53113;45.602;11.904;2022-07-21T13:59:26;7.70;;;4.20;;
66089;SDS011;53113;45.602;11.904;2022-07-21T14:01:52;8.50;;;4.50;;
66089;SDS011;53113;45.602;11.904;2022-07-21T14:04:18;7.00;;;4.00;;
66089;SDS011;53113;45.602;11.904;2022-07-21T14:06:44;6.90;;;4.50;;
66089;SDS011;53113;45.602;11.904;2022-07-21T14:09:13;9.90;;;4.50;;
66089;SDS011;53113;45.602;11.904;2022-07-21T14:11:39;8.90;;;4.40;;
66089;SDS011;53113;45.602;11.904;2022-07-21T14:14:04;7.90;;;4.60;;
66089;SDS011;53113;45.602;11.904;2022-07-21T14:16:30;9.40;;;4.30;;
66089;SDS011;53113;45.602;11.904;2022-07-21T14:18:56;9.10;;;4.70;;
66089;SDS011;53113;45.602;11.904;2022-07-21T14:21:21;10.20;;;4.60;;
66089;SDS011;53113;45.602;11.904;2022-07-21T14:23:47;9.90;;;4.80;;
66089;SDS011;53113;45.602;11.904;2022-07-21T14:26:13;6.30;;;3.90;;
66089;SDS011;53113;45.602;11.904;2022-07-21T14:28:38;8.70;;;4.40;;
66089;SDS011;53113;45.602;11.904;2022-07-21T14:31:04;6.60;;;4.20;;
66089;SDS011;53113;45.602;11.904;2022-07-21T14:33:30;6.40;;;4.10;;
66089;SDS011;53113;45.602;11.904;2022-07-21T14:35:55;9.30;;;4.50;;
66089;SDS011;53113;45.602;11.904;2022-07-21T14:38:21;8.60;;;4.50;;
66089;SDS011;53113;45.602;11.904;2022-07-21T14:40:47;6.90;;;4.10;;
66089;SDS011;53113;45.602;11.904;2022-07-21T14:43:13;6.80;;;3.90;;
66089;SDS011;53113;45.602;11.904;2022-07-21T14:45:39;8.50;;;4.20;;
66089;SDS011;53113;45.602;11.904;2022-07-21T14:48:05;7.40;;;3.90;;
66089;SDS011;53113;45.602;11.904;2022-07-21T14:50:33;8.00;;;4.20;;
66089;SDS011;53113;45.602;11.904;2022-07-21T14:53:00;7.30;;;4.00;;
66089;SDS011;53113;45.602;11.904;2022-07-21T14:55:26;6.50;;;3.90;;
66089;SDS011;53113;45.602;11.904;2022-07-21T14:57:53;7.20;;;4.10;;
66089;SDS011;53113;45.602;11.904;2022-07-21T15:00:20;7.60;;;4.10;;
66089;SDS011;53113;45.602;11.904;2022-07-21T15:02:48;6.80;;;4.20;;
66089;SDS011;53113;45.602;11.904;2022-07-21T15:05:14;8.50;;;4.60;;
66089;SDS011;53113;45.602;11.904;2022-07-21T15:07:40;8.40;;;4.40;;
66089;SDS011;53113;45.602;11.904;2022-07-21T15:10:06;7.90;;;4.60;;
66089;SDS011;53113;45.602;11.904;2022-07-21T15:12:32;7.10;;;4.30;;
66089;SDS011;53113;45.602;11.904;2022-07-21T15:14:57;8.10;;;4.50;;
66089;SDS011;53113;45.602;11.904;2022-07-21T15:17:23;8.30;;;4.30;;
66089;SDS011;53113;45.602;11.904;2022-07-21T15:19:49;7.20;;;4.30;;
66089;SDS011;53113;45.602;11.904;2022-07-21T15:22:15;7.00;;;3.90;;
66089;SDS011;53113;45.602;11.904;2022-07-21T15:24:40;7.80;;;4.80;;
66089;SDS011;53113;45.602;11.904;2022-07-21T15:27:06;7.40;;;4.40;;
66089;SDS011;53113;45.602;11.904;2022-07-21T15:29:32;8.50;;;4.90;;
66089;SDS011;53113;45.602;11.904;2022-07-21T15:31:57;7.50;;;4.50;;